createdAt,value
2023-04-19T00:02:09.196Z,6.93
2023-04-19T00:07:09.047Z,7.35
2023-04-19T00:12:12.421Z,7.20
2023-04-19T00:17:12.007Z,6.63
2023-04-19T00:22:11.614Z,6.88
2023-04-19T00:27:13.196Z,6.25
2023-04-19T00:32:12.872Z,6.75
2023-04-19T00:37:12.902Z,6.30
2023-04-19T00:42:14.469Z,6.72
2023-04-19T00:47:18.221Z,7.45
2023-04-19T00:52:18.640Z,6.88
2023-04-19T00:57:20.441Z,6.80
2023-04-19T01:02:23.437Z,7.22
2023-04-19T01:07:23.539Z,6.70
2023-04-19T01:12:24.628Z,6.95
2023-04-19T01:17:30.629Z,7.00
2023-04-19T01:22:32.297Z,6.68
2023-04-19T01:27:31.768Z,6.45
2023-04-19T01:32:31.533Z,6.68
2023-04-19T01:37:32.340Z,6.60
2023-04-19T01:42:33.480Z,6.35
2023-04-19T01:47:37.431Z,7.18
2023-04-19T01:52:40.603Z,7.22
2023-04-19T01:57:41.217Z,7.95
2023-04-19T02:02:41.334Z,6.88
2023-04-19T02:07:42.366Z,7.35
2023-04-19T02:12:44.291Z,7.55
2023-04-19T02:17:44.023Z,6.50
2023-04-19T02:22:46.176Z,6.75
2023-04-19T02:27:45.620Z,6.45
2023-04-19T02:32:45.017Z,6.70
2023-04-19T02:37:46.395Z,6.53
2023-04-19T02:42:45.915Z,6.85
2023-04-19T02:47:47.330Z,6.35
2023-04-19T02:52:51.058Z,7.03
2023-04-19T02:57:52.846Z,6.80
2023-04-19T03:02:52.652Z,7.35
2023-04-19T03:07:53.719Z,7.95
2023-04-19T03:12:53.036Z,7.32
2023-04-19T03:17:53.407Z,7.75
2023-04-19T03:22:56.245Z,9.43
2023-04-19T03:27:58.023Z,7.65
2023-04-19T03:33:17.505Z,8.77
2023-04-19T03:38:18.665Z,7.20
2023-04-19T03:43:19.347Z,7.43
2023-04-19T03:48:19.463Z,7.03
2023-04-19T03:53:23.854Z,6.68
2023-04-19T03:58:26.811Z,7.18
2023-04-19T04:03:34.462Z,6.90
2023-04-19T04:08:38.604Z,7.65
2023-04-19T04:13:39.080Z,7.35
2023-04-19T04:18:48.095Z,7.32
2023-04-19T04:23:53.894Z,8.65
2023-04-19T04:29:13.431Z,8.77
2023-04-19T04:34:21.703Z,7.93
2023-04-19T04:39:41.948Z,8.27
2023-04-19T04:44:45.532Z,8.82
2023-04-19T04:49:46.523Z,7.17
2023-04-19T04:55:00.135Z,7.65
2023-04-19T05:00:07.130Z,6.97
2023-04-19T05:05:15.959Z,6.38
2023-04-19T05:10:17.320Z,7.85
2023-04-19T05:15:20.178Z,8.23
2023-04-19T05:20:26.884Z,8.38
2023-04-19T05:25:36.635Z,6.05
2023-04-19T05:30:39.863Z,5.20
2023-04-19T05:35:39.810Z,5.00
2023-04-19T05:40:42.652Z,5.75
2023-04-19T05:45:42.152Z,4.15
2023-04-19T05:50:44.062Z,5.13
2023-04-19T05:56:05.985Z,4.72
2023-04-19T06:01:07.656Z,4.88
2023-04-19T06:06:07.805Z,5.05
2023-04-19T06:11:20.286Z,3.55
2023-04-19T06:16:24.509Z,4.43
2023-04-19T06:21:40.611Z,4.05
2023-04-19T06:26:41.292Z,4.50
2023-04-19T06:31:40.163Z,4.32
2023-04-19T06:36:39.254Z,4.00
2023-04-19T06:41:38.142Z,4.82
2023-04-19T06:46:40.822Z,3.17
2023-04-19T06:51:40.813Z,3.50
2023-04-19T06:56:45.908Z,2.80
2023-04-19T07:01:46.273Z,3.00
2023-04-19T07:06:49.392Z,3.60
2023-04-19T07:11:48.611Z,3.08
2023-04-19T07:16:50.758Z,3.20
2023-04-19T07:21:50.428Z,3.33
2023-04-19T07:26:49.217Z,3.92
2023-04-19T07:31:49.684Z,4.47
2023-04-19T07:36:48.504Z,3.20
2023-04-19T07:41:47.474Z,3.45
2023-04-19T07:46:46.638Z,2.88
2023-04-19T07:51:50.165Z,2.65
2023-04-19T07:56:53.726Z,3.13
2023-04-19T08:01:53.365Z,5.05
2023-04-19T08:06:54.237Z,4.57
2023-04-19T08:11:53.773Z,4.38
2023-04-19T08:21:55.819Z,3.73
2023-04-19T08:26:55.204Z,2.75
2023-04-19T08:31:54.185Z,3.72
2023-04-19T08:37:03.595Z,2.97
2023-04-19T08:42:13.356Z,2.97
2023-04-19T08:47:30.684Z,2.88
2023-04-19T08:52:32.195Z,3.05
2023-04-19T08:57:33.878Z,2.33
2023-04-19T09:02:47.660Z,3.40
2023-04-19T09:07:48.062Z,2.60
2023-04-19T09:13:03.919Z,1.95
2023-04-19T09:18:06.389Z,2.80
2023-04-19T09:23:06.851Z,7.00
2023-04-19T09:28:14.080Z,2.30
2023-04-19T09:33:12.969Z,2.03
2023-04-19T09:38:12.968Z,2.63
2023-04-19T09:43:45.298Z,3.33
2023-04-19T09:48:32.107Z,2.75
2023-04-19T09:53:34.642Z,3.67
2023-04-19T09:58:48.969Z,2.83
2023-04-19T10:03:55.798Z,2.90
2023-04-19T10:08:56.839Z,2.78
2023-04-19T10:14:00.894Z,2.75
2023-04-19T10:19:00.412Z,3.50
2023-04-19T10:24:01.110Z,3.58
2023-04-19T10:29:01.497Z,3.13
2023-04-19T10:34:00.816Z,3.08
2023-04-19T10:38:59.632Z,2.80
2023-04-19T10:44:12.727Z,2.90
2023-04-19T10:49:13.811Z,3.08
2023-04-19T10:54:31.982Z,3.13
2023-04-19T10:59:33.099Z,3.35
2023-04-19T11:05:05.672Z,2.72
2023-04-19T11:15:06.920Z,2.95
2023-04-19T11:25:17.171Z,3.22
2023-04-19T11:30:32.529Z,3.67
2023-04-19T11:35:32.710Z,3.95
2023-04-19T11:40:32.222Z,3.42
2023-04-19T11:45:38.101Z,2.47
2023-04-19T11:50:39.671Z,2.85
2023-04-19T11:55:39.138Z,3.30
2023-04-19T12:00:39.737Z,2.33
2023-04-19T12:05:39.423Z,3.05
2023-04-19T12:10:38.463Z,2.85
2023-04-19T12:15:49.333Z,2.65
2023-04-19T12:20:50.062Z,2.53
2023-04-19T12:25:50.363Z,2.78
2023-04-19T12:30:50.680Z,2.55
2023-04-19T12:35:50.697Z,2.35
2023-04-19T12:40:50.378Z,1.90
2023-04-19T12:45:51.044Z,2.30
2023-04-19T12:50:50.208Z,1.75
2023-04-19T12:55:50.261Z,1.73
2023-04-19T13:00:53.235Z,1.30
2023-04-19T13:05:52.258Z,1.88
2023-04-19T13:10:52.743Z,1.80
2023-04-19T13:15:55.765Z,1.90
2023-04-19T13:20:56.684Z,2.28
2023-04-19T13:25:58.681Z,1.90
2023-04-19T13:30:59.034Z,2.78
2023-04-19T13:35:58.020Z,2.30
2023-04-19T13:40:58.580Z,2.05
2023-04-19T13:45:59.064Z,1.92
2023-04-19T13:50:58.733Z,4.88
2023-04-19T13:55:58.050Z,2.83
2023-04-19T14:01:07.173Z,2.03
2023-04-19T14:06:06.689Z,2.08
2023-04-19T14:11:08.552Z,2.30
2023-04-19T14:16:10.173Z,2.38
2023-04-19T14:21:14.257Z,2.47
2023-04-19T14:26:15.946Z,2.30
2023-04-19T14:31:16.599Z,2.28
2023-04-19T14:36:16.636Z,2.35
2023-04-19T14:41:15.907Z,2.25
2023-04-19T14:46:58.402Z,2.80
2023-04-19T14:51:59.384Z,2.53
2023-04-19T14:57:02.422Z,2.88
2023-04-19T15:02:02.726Z,3.55
2023-04-19T15:07:01.831Z,2.58
2023-04-19T15:12:01.407Z,2.45
2023-04-19T15:17:00.442Z,2.22
2023-04-19T15:22:00.795Z,3.22
2023-04-19T15:27:00.334Z,3.07
2023-04-19T15:31:59.611Z,2.42
2023-04-19T15:36:58.652Z,2.72
2023-04-19T15:41:59.066Z,2.92
2023-04-19T15:46:58.065Z,4.15
2023-04-19T15:51:59.092Z,2.50
2023-04-19T15:56:59.411Z,3.40
2023-04-19T16:01:58.530Z,2.28
2023-04-19T16:07:33.312Z,4.00
2023-04-19T16:12:33.825Z,3.03
2023-04-19T16:17:32.819Z,7.57
2023-04-19T16:22:33.157Z,3.60
2023-04-19T16:27:33.677Z,4.07
2023-04-19T16:32:33.056Z,5.70
2023-04-19T16:37:32.299Z,9.23
2023-04-19T16:42:44.165Z,5.88
2023-04-19T16:47:46.475Z,5.88
2023-04-19T16:52:46.083Z,4.32
2023-04-19T16:57:45.251Z,3.80
2023-04-19T17:02:48.832Z,4.03
2023-04-19T17:07:47.967Z,4.00
2023-04-19T17:12:46.951Z,4.30
2023-04-19T17:17:47.654Z,4.13
2023-04-19T17:22:46.642Z,3.60
2023-04-19T17:27:47.796Z,4.22
2023-04-19T17:32:54.884Z,5.47
2023-04-19T17:37:54.654Z,6.50
2023-04-19T17:42:53.578Z,4.65
2023-04-19T17:47:58.309Z,5.93
2023-04-19T17:52:59.214Z,5.63
2023-04-19T17:57:58.393Z,7.40
2023-04-19T18:02:59.621Z,7.65
2023-04-19T18:08:01.581Z,6.30
2023-04-19T18:13:00.575Z,5.30
2023-04-19T18:18:00.980Z,3.72
2023-04-19T18:23:03.268Z,4.65
2023-04-19T18:28:06.622Z,6.75
2023-04-19T18:33:14.338Z,6.20
2023-04-19T18:38:13.415Z,6.68
2023-04-19T18:43:12.298Z,6.53
2023-04-19T18:48:12.680Z,6.80
2023-04-19T18:53:11.571Z,7.68
2023-04-19T19:08:46.182Z,7.22
2023-04-19T19:20:10.902Z,8.52
2023-04-19T19:25:10.402Z,9.57
2023-04-19T19:30:10.393Z,9.50
2023-04-19T19:35:11.617Z,10.60
2023-04-19T19:40:12.532Z,9.82
2023-04-19T19:45:13.627Z,9.93
2023-04-19T19:51:01.066Z,9.32
2023-04-19T19:55:33.987Z,9.07
2023-04-19T20:00:44.500Z,11.50
2023-04-19T20:05:46.909Z,8.27
2023-04-19T20:10:46.316Z,10.10
2023-04-19T20:15:47.498Z,11.07
2023-04-19T20:20:50.242Z,9.85
2023-04-19T20:25:52.422Z,9.43
2023-04-19T20:30:51.335Z,9.75
2023-04-19T20:35:53.701Z,8.75
2023-04-19T20:40:52.936Z,8.00
2023-04-19T20:45:51.905Z,8.98
2023-04-19T20:50:52.329Z,8.13
2023-04-19T20:55:51.278Z,8.88
2023-04-19T21:00:51.032Z,9.30
2023-04-19T21:05:51.470Z,8.65
2023-04-19T21:10:50.418Z,8.43
2023-04-19T21:15:49.377Z,9.02
2023-04-19T21:20:48.446Z,8.27
2023-04-19T21:25:49.180Z,7.63
2023-04-19T21:30:49.985Z,8.23
2023-04-19T21:35:49.428Z,9.27
2023-04-19T21:40:50.077Z,9.20
2023-04-19T21:45:48.961Z,8.48
2023-04-19T21:50:47.950Z,7.93
2023-04-19T21:55:51.030Z,7.57
2023-04-19T22:00:50.144Z,7.82
2023-04-19T22:05:49.391Z,8.55
2023-04-19T22:10:50.539Z,7.70
2023-04-19T22:15:50.946Z,8.55
2023-04-19T22:20:51.040Z,8.80
2023-04-19T22:25:50.276Z,9.60
2023-04-19T22:30:52.727Z,8.63
2023-04-19T22:35:51.820Z,9.77
2023-04-19T22:40:51.144Z,8.75
2023-04-19T22:45:53.002Z,9.50
2023-04-19T22:50:53.694Z,8.90
2023-04-19T22:55:54.793Z,9.07
2023-04-19T23:00:55.395Z,10.63
2023-04-19T23:05:54.459Z,10.45
2023-04-19T23:10:53.953Z,9.02
2023-04-19T23:15:54.585Z,9.55
2023-04-19T23:20:53.518Z,8.35
2023-04-19T23:25:52.507Z,9.43
2023-04-19T23:30:51.376Z,8.30
2023-04-19T23:35:52.196Z,9.23
2023-04-19T23:40:51.034Z,9.32
2023-04-19T23:45:49.965Z,8.18
2023-04-19T23:50:48.870Z,8.85
2023-04-19T23:55:49.330Z,8.65
